| time (UTC) | temp F | wind direction | speed MPH | gust MPH | rain 1hr in | rain 24hr in | rain mn in | humidity % | barometer mb |
| 20260508034600 | 54 | 360 | 3.0 | 5.0 | 0.00 | 0.00 | 0.00 | 44 | 1010.4 |
| 20260508033100 | 55 | 360 | 3.0 | 5.0 | 0.00 | 0.00 | 0.00 | 43 | 1010.5 |
| 20260508031549 | 55 | 360 | 4.0 | 6.0 | 0.00 | 0.00 | 0.00 | 40 | 1010.2 |
| 20260508030047 | 59 | 360 | 2.0 | 5.0 | 0.00 | 0.00 | 0.00 | 41 | 1010.0 |
| 20260508024554 | 61 | 360 | 3.0 | 5.0 | 0.00 | 0.00 | 0.00 | 34 | 1009.9 |
| 20260508023042 | 63 | 360 | 3.0 | 6.0 | 0.00 | 0.00 | 0.00 | 32 | 1009.6 |
| 20260508021539 | 64 | 360 | 3.0 | 6.0 | 0.00 | 0.00 | 0.00 | 31 | 1009.3 |
| 20260508020040 | 67 | 360 | 5.0 | 10.0 | 0.00 | 0.00 | 0.00 | 28 | 1009.2 |
| 20260508014537 | 67 | 360 | 6.0 | 14.0 | 0.00 | 0.00 | 0.00 | 27 | 1009.0 |
| 20260508013037 | 68 | 360 | 5.0 | 11.0 | 0.00 | 0.00 | 0.00 | 27 | 1008.9 |
| 20260508011536 | 69 | 360 | 10.0 | 17.0 | 0.00 | 0.00 | 0.00 | 26 | 1008.9 |
| 20260508010035 | 69 | 360 | 8.0 | 20.0 | 0.00 | 0.00 | 0.00 | 29 | 1008.8 |
| 20260508004538 | 69 | 360 | 11.0 | 19.0 | 0.00 | 0.00 | 0.00 | 29 | 1008.9 |
| 20260508003033 | 69 | 360 | 8.0 | 16.0 | 0.00 | 0.00 | 0.00 | 29 | 1009.0 |
| 20260508001533 | 69 | 360 | 10.0 | 19.0 | 0.00 | 0.00 | 0.00 | 28 | 1009.0 |
| 20260508000031 | 68 | 360 | 12.0 | 20.0 | 0.00 | 0.00 | 0.00 | 29 | 1008.9 |
| 20260507234539 | 70 | 360 | 14.0 | 22.0 | 0.00 | 0.00 | 0.00 | 27 | 1008.8 |
| 20260507233032 | 69 | 360 | 10.0 | 18.0 | 0.00 | 0.00 | 0.00 | 27 | 1008.8 |
| 20260507231528 | 69 | 360 | 9.0 | 21.0 | 0.00 | 0.00 | 0.00 | 28 | 1008.7 |
| 20260507230028 | 68 | 360 | 12.0 | 20.0 | 0.00 | 0.00 | 0.00 | 27 | 1008.8 |
| 20260507224530 | 69 | 360 | 14.0 | 21.0 | 0.00 | 0.00 | 0.00 | 27 | 1008.8 |
| 20260507223027 | 70 | 360 | 14.0 | 21.0 | 0.00 | 0.00 | 0.00 | 26 | 1008.8 |
| 20260507221524 | 69 | 360 | 14.0 | 23.0 | 0.00 | 0.00 | 0.00 | 26 | 1008.9 |
| 20260507220122 | 68 | 360 | 17.0 | 22.0 | 0.00 | 0.00 | 0.00 | 29 | 1009.2 |
| 20260507214524 | 68 | 360 | 15.0 | 22.0 | 0.00 | 0.00 | 0.00 | 28 | 1009.2 |
| 20260507213020 | 69 | 360 | 13.0 | 27.0 | 0.00 | 0.00 | 0.00 | 29 | 1009.2 |
| 20260507211516 | 68 | 360 | 8.0 | 18.0 | 0.00 | 0.00 | 0.00 | 30 | 1009.4 |
| 20260507210016 | 66 | 360 | 13.0 | 22.0 | 0.00 | 0.00 | 0.00 | 33 | 1009.8 |
| 20260507204515 | 67 | 360 | 23.0 | 32.0 | 0.00 | 0.00 | 0.00 | 33 | 1009.8 |
| 20260507203015 | 68 | 360 | 18.0 | 24.0 | 0.00 | 0.00 | 0.00 | 30 | 1009.7 |
| 20260507201513 | 67 | 360 | 17.0 | 22.0 | 0.00 | 0.00 | 0.00 | 31 | 1009.7 |
| 20260507200013 | 67 | 360 | 16.0 | 24.0 | 0.00 | 0.00 | 0.00 | 31 | 1009.6 |
| 20260507194513 | 67 | 360 | 12.0 | 20.0 | 0.00 | 0.00 | 0.00 | 31 | 1009.6 |
| 20260507193012 | 66 | 360 | 14.0 | 21.0 | 0.00 | 0.00 | 0.00 | 32 | 1009.6 |
| 20260507191511 | 68 | 360 | 14.0 | 23.0 | 0.00 | 0.00 | 0.00 | 31 | 1009.5 |
| 20260507190009 | 68 | 360 | 14.0 | 28.0 | 0.00 | 0.00 | 0.00 | 32 | 1009.6 |
| 20260507184509 | 67 | 360 | 16.0 | 22.0 | 0.00 | 0.00 | 0.00 | 31 | 1009.7 |
| 20260507183006 | 67 | 360 | 14.0 | 23.0 | 0.00 | 0.00 | 0.00 | 33 | 1009.9 |
| 20260507181506 | 66 | 360 | 12.0 | 17.0 | 0.00 | 0.00 | 0.00 | 35 | 1010.1 |
| 20260507180005 | 65 | 360 | 14.0 | 23.0 | 0.00 | 0.00 | 0.00 | 35 | 1010.3 |
| 20260507174502 | 66 | 360 | 15.0 | 22.0 | 0.00 | 0.00 | 0.00 | 36 | 1010.4 |
| 20260507173102 | 65 | 360 | 17.0 | 27.0 | 0.00 | 0.00 | 0.00 | 38 | 1010.4 |
| 20260507171604 | 64 | 360 | 15.0 | 21.0 | 0.00 | 0.00 | 0.00 | 39 | 1010.5 |
| 20260507170057 | 64 | 360 | 16.0 | 21.0 | 0.00 | 0.00 | 0.00 | 40 | 1010.6 |
| 20260507164557 | 64 | 360 | 16.0 | 25.0 | 0.00 | 0.00 | 0.00 | 40 | 1010.7 |
| 20260507163108 | 63 | 360 | 13.0 | 21.0 | 0.00 | 0.00 | 0.00 | 40 | 1010.7 |
| 20260507161553 | 63 | 360 | 14.0 | 19.0 | 0.00 | 0.00 | 0.00 | 41 | 1010.7 |
| 20260507160054 | 62 | 360 | 11.0 | 16.0 | 0.00 | 0.00 | 0.00 | 43 | 1011.0 |
| 20260507154550 | 62 | 360 | 13.0 | 21.0 | 0.00 | 0.00 | 0.00 | 42 | 1011.0 |
| 20260507153046 | 61 | 360 | 8.0 | 11.0 | 0.00 | 0.00 | 0.00 | 45 | 1011.0 |
| 20260507151543 | 58 | 360 | 3.0 | 9.0 | 0.00 | 0.00 | 0.00 | 45 | 1011.0 |
| 20260507150038 | 56 | 360 | 8.0 | 12.0 | 0.00 | 0.00 | 0.00 | 44 | 1011.4 |
| 20260507144547 | 52 | 360 | 5.0 | 9.0 | 0.00 | 0.00 | 0.00 | 42 | 1011.5 |
| 20260507143032 | 50 | 360 | 3.0 | 5.0 | 0.00 | 0.00 | 0.00 | 39 | 1011.4 |
| 20260507141531 | 48 | 360 | 2.0 | 5.0 | 0.00 | 0.00 | 0.00 | 39 | 1011.3 |
| 20260507140031 | 47 | 360 | 2.0 | 4.0 | 0.00 | 0.00 | 0.00 | 41 | 1011.5 |
| 20260507134531 | 47 | 360 | 2.0 | 4.0 | 0.00 | 0.00 | 0.00 | 44 | 1011.6 |
| 20260507133031 | 46 | 360 | 0.0 | 5.0 | 0.00 | 0.00 | 0.00 | 42 | 1011.3 |
| 20260507131528 | 46 | 360 | 5.0 | 8.0 | 0.00 | 0.00 | 0.00 | 42 | 1011.5 |
| 20260507130027 | 45 | 360 | 4.0 | 6.0 | 0.00 | 0.00 | 0.00 | 44 | 1011.4 |
| 20260507124526 | 44 | 360 | 0.0 | 5.0 | 0.00 | 0.00 | 0.00 | 48 | 1011.3 |
| 20260507123024 | 44 | 360 | 3.0 | 5.0 | 0.00 | 0.00 | 0.00 | 44 | 1011.0 |
| 20260507121523 | 43 | 360 | 0.0 | 1.0 | 0.00 | 0.00 | 0.00 | 47 | 1010.9 |
| 20260507120023 | 43 | 360 | 0.0 | 0.0 | 0.00 | 0.00 | 0.00 | 47 | 1010.8 |
| 20260507114522 | 43 | 360 | 0.0 | 3.0 | 0.00 | 0.00 | 0.00 | 47 | 1010.8 |
| 20260507113023 | 44 | 360 | 3.0 | 6.0 | 0.00 | 0.00 | 0.00 | 47 | 1010.9 |
| 20260507111533 | 43 | 360 | 5.0 | 9.0 | 0.00 | 0.00 | 0.00 | 49 | 1010.6 |
| 20260507110018 | 42 | 360 | 4.0 | 9.0 | 0.00 | 0.00 | 0.00 | 53 | 1010.4 |
| 20260507104520 | 42 | 360 | 3.0 | 6.0 | 0.00 | 0.00 | 0.00 | 53 | 1010.4 |
| 20260507103016 | 43 | 360 | 4.0 | 8.0 | 0.00 | 0.00 | 0.00 | 53 | 1010.3 |
| 20260507101515 | 42 | 360 | 4.0 | 6.0 | 0.00 | 0.00 | 0.00 | 51 | 1010.3 |
| 20260507100018 | 41 | 360 | 5.0 | 9.0 | 0.00 | 0.00 | 0.00 | 50 | 1010.4 |
| 20260507094513 | 40 | 360 | 3.0 | 6.0 | 0.00 | 0.00 | 0.00 | 50 | 1010.5 |
| 20260507093019 | 40 | 360 | 5.0 | 9.0 | 0.00 | 0.00 | 0.00 | 49 | 1010.4 |
| 20260507091509 | 42 | 360 | 2.0 | 4.0 | 0.00 | 0.00 | 0.00 | 45 | 1010.4 |
| 20260507090011 | 44 | 360 | 1.0 | 6.0 | 0.00 | 0.00 | 0.00 | 40 | 1010.1 |
| 20260507084505 | 44 | 360 | 2.0 | 9.0 | 0.00 | 0.00 | 0.00 | 40 | 1010.1 |
| 20260507083003 | 44 | 360 | 2.0 | 9.0 | 0.00 | 0.00 | 0.00 | 40 | 1010.1 |
| 20260507081503 | 45 | 360 | 3.0 | 6.0 | 0.00 | 0.00 | 0.00 | 41 | 1010.1 |
| 20260507080059 | 45 | 360 | 4.0 | 9.0 | 0.00 | 0.00 | 0.00 | 41 | 1010.3 |
| 20260507074557 | 46 | 360 | 9.0 | 14.0 | 0.00 | 0.00 | 0.00 | 41 | 1010.5 |
| 20260507073101 | 46 | 360 | 9.0 | 14.0 | 0.00 | 0.00 | 0.00 | 46 | 1010.4 |
| 20260507071553 | 48 | 360 | 2.0 | 6.0 | 0.00 | 0.00 | 0.00 | 47 | 1010.0 |
| 20260507070051 | 49 | 360 | 4.0 | 10.0 | 0.00 | 0.00 | 0.00 | 48 | 1009.9 |
| 20260507064544 | 50 | 360 | 7.0 | 12.0 | 0.00 | 0.00 | 0.00 | 45 | 1010.0 |
| 20260507063047 | 51 | 360 | 5.0 | 9.0 | 0.00 | 0.00 | 0.00 | 44 | 1010.0 |
| 20260507061537 | 51 | 360 | 3.0 | 5.0 | 0.00 | 0.00 | 0.00 | 41 | 1010.1 |
| 20260507060048 | 52 | 360 | 5.0 | 9.0 | 0.00 | 0.00 | 0.00 | 41 | 1010.2 |
| 20260507054544 | 53 | 360 | 10.0 | 21.0 | 0.00 | 0.00 | 0.00 | 36 | 1010.4 |
| 20260507053036 | 54 | 360 | 10.0 | 19.0 | 0.00 | 0.00 | 0.00 | 34 | 1010.1 |
| 20260507051533 | 54 | 360 | 17.0 | 25.0 | 0.00 | 0.00 | 0.00 | 34 | 1009.4 |
| 20260507050032 | 55 | 360 | 12.0 | 19.0 | 0.00 | 0.00 | 0.00 | 30 | 1010.2 |
| 20260507044547 | 56 | 360 | 10.0 | 16.0 | 0.00 | 0.00 | 0.00 | 31 | 1010.2 |
| 20260507043031 | 56 | 360 | 8.0 | 14.0 | 0.00 | 0.00 | 0.00 | 32 | 1009.6 |
| 20260507041529 | 58 | 360 | 6.0 | 9.0 | 0.00 | 0.00 | 0.00 | 31 | 1010.0 |
| 20260507040033 | 58 | 360 | 4.0 | 10.0 | 0.00 | 0.00 | 0.00 | 31 | 1009.7 |